TimeEDT,TemperatureF,Dew PointF,Humidity,Sea Level PressureIn,VisibilityMPH,Wind Direction,Wind SpeedMPH,Gust SpeedMPH,PrecipitationIn,Events,Conditions,WindDirDegrees,DateUTC
12:05 AM,57.2,55.4,94,30.00,2.5,Calm,Calm,-,0.00,Rain,Light Rain,0,2012-10-04 04:05:00
12:13 AM,57.2,55.4,94,29.99,4.0,Calm,Calm,-,0.00,Rain,Light Rain,0,2012-10-04 04:13:00
12:27 AM,57.2,55.4,94,29.99,2.5,Calm,Calm,-,0.01,Rain,Light Rain,0,2012-10-04 04:27:00
12:34 AM,57.2,55.4,94,29.99,2.5,Calm,Calm,-,0.01,Rain,Light Rain,0,2012-10-04 04:34:00
12:43 AM,57.2,55.4,94,29.99,2.5,Calm,Calm,-,0.01,Rain,Light Rain,0,2012-10-04 04:43:00
12:50 AM,57.2,57.2,100,29.99,3.0,Calm,Calm,-,0.01,Rain,Light Rain,0,2012-10-04 04:50:00
12:54 AM,57.0,57.0,100,30.00,3.0,Calm,Calm,-,0.01,Rain,Light Rain,0,2012-10-04 04:54:00
1:08 AM,57.2,55.4,94,29.98,2.5,Calm,Calm,-,0.01,,Overcast,0,2012-10-04 05:08:00
1:20 AM,57.2,55.4,94,29.98,2.5,Calm,Calm,-,0.01,Rain,Light Rain,0,2012-10-04 05:20:00
1:38 AM,57.2,57.2,100,29.98,3.0,Calm,Calm,-,0.01,Rain,Light Rain,0,2012-10-04 05:38:00
1:54 AM,57.0,57.0,100,29.98,3.0,Calm,Calm,-,0.02,Rain,Light Rain,0,2012-10-04 05:54:00
2:10 AM,57.2,57.2,100,29.98,2.5,Calm,Calm,-,0.01,Rain,Light Rain,0,2012-10-04 06:10:00
2:54 AM,57.0,57.0,100,29.97,2.5,Calm,Calm,-,0.04,Rain,Light Rain,0,2012-10-04 06:54:00
3:21 AM,57.2,57.2,100,29.96,2.5,Calm,Calm,-,0.02,Rain,Light Rain,0,2012-10-04 07:21:00
3:40 AM,57.2,57.2,100,29.96,2.5,Calm,Calm,-,0.05,Rain,Light Rain,0,2012-10-04 07:40:00
3:51 AM,57.2,57.2,100,29.95,2.0,Calm,Calm,-,0.06,Rain,Light Rain,0,2012-10-04 07:51:00
3:54 AM,57.0,57.0,100,29.96,2.0,Calm,Calm,-,0.06,Rain,Light Rain,0,2012-10-04 07:54:00
3:58 AM,57.2,57.2,100,29.95,2.0,Calm,Calm,-,0.01,Rain,Light Rain,0,2012-10-04 07:58:00
4:10 AM,57.2,57.2,100,29.95,2.0,Calm,Calm,-,0.04,Rain,Rain,0,2012-10-04 08:10:00
4:29 AM,57.2,57.2,100,29.95,1.8,Calm,Calm,-,0.12,Rain,Heavy Rain,0,2012-10-04 08:29:00
4:33 AM,57.2,57.2,100,29.95,2.0,NNW,3.5,-,0.13,Rain,Heavy Rain,330,2012-10-04 08:33:00
4:41 AM,57.2,57.2,100,29.95,3.0,Calm,Calm,-,0.14,Rain,Light Rain,0,2012-10-04 08:41:00
4:54 AM,57.0,57.0,100,29.95,2.5,Calm,Calm,-,0.16,Rain,Rain,0,2012-10-04 08:54:00
5:04 AM,57.2,57.2,100,29.95,3.0,Calm,Calm,-,0.02,Rain,Light Rain,0,2012-10-04 09:04:00
5:14 AM,57.2,57.2,100,29.95,2.5,Calm,Calm,-,0.04,Rain,Rain,0,2012-10-04 09:14:00
5:30 AM,57.2,57.2,100,29.95,3.0,Calm,Calm,-,0.06,Rain,Light Rain,0,2012-10-04 09:30:00
5:45 AM,57.2,57.2,100,29.95,2.5,Calm,Calm,-,0.08,Rain,Light Rain,0,2012-10-04 09:45:00
5:54 AM,57.0,57.0,100,29.95,2.5,Calm,Calm,-,0.09,Rain,Light Rain,0,2012-10-04 09:54:00
5:59 AM,57.2,57.2,100,29.95,3.0,NE,4.6,-,0.00,Rain,Light Rain,40,2012-10-04 09:59:00
6:07 AM,57.2,57.2,100,29.94,4.0,NNE,4.6,-,0.01,Rain,Light Rain,20,2012-10-04 10:07:00
6:20 AM,57.2,57.2,100,29.94,6.0,Calm,Calm,-,0.02,Rain,Light Rain,0,2012-10-04 10:20:00
6:27 AM,57.2,57.2,100,29.94,9.0,Calm,Calm,-,0.02,Rain,Light Rain,0,2012-10-04 10:27:00
6:54 AM,57.0,57.0,100,29.95,6.0,Calm,Calm,-,0.02,,Overcast,0,2012-10-04 10:54:00
7:49 AM,57.2,57.2,100,29.95,10.0,Calm,Calm,-,0.02,,Overcast,0,2012-10-04 11:49:00
7:54 AM,57.0,57.0,100,29.95,10.0,Calm,Calm,-,0.02,,Overcast,0,2012-10-04 11:54:00
8:54 AM,57.0,57.0,100,29.95,6.0,Calm,Calm,-,N/A,,Overcast,0,2012-10-04 12:54:00
9:08 AM,57.2,57.2,100,29.94,2.0,Calm,Calm,-,N/A,,Overcast,0,2012-10-04 13:08:00
9:19 AM,57.2,55.4,94,29.94,3.0,Calm,Calm,-,N/A,,Overcast,0,2012-10-04 13:19:00
9:28 AM,57.2,57.2,100,29.94,2.0,Calm,Calm,-,N/A,,Overcast,0,2012-10-04 13:28:00
9:36 AM,57.2,57.2,100,29.94,1.0,Calm,Calm,-,N/A,,Overcast,0,2012-10-04 13:36:00
9:44 AM,57.2,57.2,100,29.94,0.8,Calm,Calm,-,N/A,,Overcast,0,2012-10-04 13:44:00
9:54 AM,57.0,57.0,100,29.95,1.0,Calm,Calm,-,N/A,,Overcast,0,2012-10-04 13:54:00
10:03 AM,57.2,57.2,100,29.95,3.0,Calm,Calm,-,N/A,,Overcast,0,2012-10-04 14:03:00
10:17 AM,57.2,57.2,100,29.95,10.0,Calm,Calm,-,N/A,,Overcast,0,2012-10-04 14:17:00
10:39 AM,59.0,57.2,94,29.95,10.0,Calm,Calm,-,N/A,,Overcast,0,2012-10-04 14:39:00
10:54 AM,59.0,57.0,93,29.96,10.0,WNW,3.5,-,N/A,,Overcast,300,2012-10-04 14:54:00
11:45 AM,62.6,57.2,82,29.95,10.0,Calm,Calm,-,N/A,,Mostly Cloudy,0,2012-10-04 15:45:00
11:54 AM,62.1,57.0,84,29.94,10.0,SW,5.8,-,N/A,,Mostly Cloudy,220,2012-10-04 15:54:00
12:04 PM,62.6,57.2,82,29.94,10.0,WSW,3.5,-,N/A,,Scattered Clouds,240,2012-10-04 16:04:00
12:18 PM,64.4,59.0,83,29.95,10.0,South,4.6,-,N/A,,Mostly Cloudy,190,2012-10-04 16:18:00
12:51 PM,64.4,57.2,77,29.93,10.0,SW,6.9,-,N/A,,Scattered Clouds,230,2012-10-04 16:51:00
12:54 PM,64.9,55.9,73,29.94,10.0,WSW,6.9,-,N/A,,Scattered Clouds,250,2012-10-04 16:54:00
1:54 PM,68.0,55.9,65,29.91,10.0,SW,6.9,-,N/A,,Clear,220,2012-10-04 17:54:00
2:54 PM,69.1,54.0,58,29.90,10.0,South,9.2,-,N/A,,Clear,190,2012-10-04 18:54:00
3:54 PM,71.1,54.0,55,29.87,10.0,South,10.4,16.1,N/A,,Partly Cloudy,190,2012-10-04 19:54:00
4:54 PM,71.1,53.1,53,29.86,10.0,SW,5.8,-,N/A,,Clear,220,2012-10-04 20:54:00
5:54 PM,70.0,53.1,55,29.86,10.0,SSW,5.8,-,N/A,,Scattered Clouds,210,2012-10-04 21:54:00
6:54 PM,69.1,54.0,58,29.86,10.0,SSW,8.1,-,N/A,,Overcast,210,2012-10-04 22:54:00
7:54 PM,66.0,55.0,68,29.84,10.0,SSW,8.1,-,0.00,,Overcast,200,2012-10-04 23:54:00
8:54 PM,66.0,54.0,65,29.84,10.0,SW,16.1,21.9,N/A,,Overcast,230,2012-10-05 00:54:00
10:54 PM,61.0,46.9,60,29.86,10.0,WSW,12.7,23.0,0.00,,Clear,250,2012-10-05 02:54:00
11:54 PM,59.0,44.1,58,29.86,10.0,West,13.8,27.6,N/A,,Clear,260,2012-10-05 03:54:00